TNCA/AUA METAR and TAF weather

Enter ICAO airport designator
Station Type Date Time Source
TNCA METAR 2019/10/22 16:00 UTC NOAA

TNCA 221600Z 15011KT 9999 FEW017TCU BKN021 29/24 Q1013 TEMPO 10015KT 5000 TSRA SCT012CB RMK CB VIS TO N OF STATION


Station Type Date Time Source
TNCA Decoded METAR 2019/10/22 16:00 UTC NOAA

Queen Beatrix Airport, Aruba (TNCA) 12-30N 070-01W 33M
Oct 22, 2019 - 12:00 PM EDT / 2019.10.22 1600 UTC
Wind: from the SSE (150 degrees) at 13 MPH (11 KT):0
Visibility: greater than 7 mile(s):0
Sky conditions: mostly cloudy
Weather: Cumulonimbus clouds, towering cumulus clouds observed
Temperature: 84 F (29 C)
Dew Point: 75 F (24 C)
Relative Humidity: 74%
Pressure (altimeter): 29.91 in. Hg (1013 hPa)
ob: TNCA 221600Z 15011KT 9999 FEW017TCU BKN021 29/24 Q1013 TEMPO 10015KT 5000 TSRA SCT012CB RMK CB VIS TO N OF STATION
cycle: 16

Station Type Date Time Source
TNCA TAF 2019/10/22 12:15 UTC NOAA

TAF TNCA 221115Z 2212/2312 08009KT 9999 SCT020 PROB30
TEMPO 2212/2312 7000 -SHRA BKN014

Example: see airport list